sensor_id;sensor_type;location;lat;lon;timestamp;P1;durP1;ratioP1;P2;durP2;ratioP2
5696;SDS011;2873;50.966;7.210;2023-06-14T00:01:23;7.83;;;7.03;;
5696;SDS011;2873;50.966;7.210;2023-06-14T00:03:49;8.37;;;7.10;;
5696;SDS011;2873;50.966;7.210;2023-06-14T00:06:14;6.93;;;6.22;;
5696;SDS011;2873;50.966;7.210;2023-06-14T00:08:40;9.63;;;7.00;;
5696;SDS011;2873;50.966;7.210;2023-06-14T00:11:06;10.07;;;6.93;;
5696;SDS011;2873;50.966;7.210;2023-06-14T00:13:32;7.60;;;6.50;;
5696;SDS011;2873;50.966;7.210;2023-06-14T00:15:58;11.13;;;6.70;;
5696;SDS011;2873;50.966;7.210;2023-06-14T00:18:23;7.75;;;6.47;;
5696;SDS011;2873;50.966;7.210;2023-06-14T00:20:50;10.25;;;7.55;;
5696;SDS011;2873;50.966;7.210;2023-06-14T00:23:16;11.73;;;6.78;;
5696;SDS011;2873;50.966;7.210;2023-06-14T00:25:41;7.75;;;6.72;;
5696;SDS011;2873;50.966;7.210;2023-06-14T00:28:07;12.23;;;6.47;;
5696;SDS011;2873;50.966;7.210;2023-06-14T00:30:32;9.53;;;6.20;;
5696;SDS011;2873;50.966;7.210;2023-06-14T00:32:58;8.10;;;6.70;;
5696;SDS011;2873;50.966;7.210;2023-06-14T00:35:24;8.13;;;6.75;;
5696;SDS011;2873;50.966;7.210;2023-06-14T00:37:50;9.80;;;6.72;;
5696;SDS011;2873;50.966;7.210;2023-06-14T00:40:16;9.60;;;6.43;;
5696;SDS011;2873;50.966;7.210;2023-06-14T00:42:41;7.40;;;6.40;;
5696;SDS011;2873;50.966;7.210;2023-06-14T00:45:07;7.37;;;6.43;;
5696;SDS011;2873;50.966;7.210;2023-06-14T00:47:34;8.57;;;6.60;;
5696;SDS011;2873;50.966;7.210;2023-06-14T00:50:02;8.93;;;6.72;;
5696;SDS011;2873;50.966;7.210;2023-06-14T00:52:32;12.60;;;6.45;;
5696;SDS011;2873;50.966;7.210;2023-06-14T00:54:57;7.03;;;6.30;;
5696;SDS011;2873;50.966;7.210;2023-06-14T00:57:23;8.77;;;6.50;;
5696;SDS011;2873;50.966;7.210;2023-06-14T00:59:49;6.90;;;6.00;;
5696;SDS011;2873;50.966;7.210;2023-06-14T01:02:15;10.88;;;6.28;;
5696;SDS011;2873;50.966;7.210;2023-06-14T01:04:42;9.15;;;6.25;;
5696;SDS011;2873;50.966;7.210;2023-06-14T01:07:23;7.25;;;5.85;;
5696;SDS011;2873;50.966;7.210;2023-06-14T01:15:47;6.30;;;5.70;;
5696;SDS011;2873;50.966;7.210;2023-06-14T01:18:14;7.40;;;6.10;;
5696;SDS011;2873;50.966;7.210;2023-06-14T01:20:43;9.98;;;5.97;;
5696;SDS011;2873;50.966;7.210;2023-06-14T01:23:10;6.88;;;6.15;;
5696;SDS011;2873;50.966;7.210;2023-06-14T01:25:37;8.90;;;6.40;;
5696;SDS011;2873;50.966;7.210;2023-06-14T01:28:04;12.32;;;6.40;;
5696;SDS011;2873;50.966;7.210;2023-06-14T01:30:38;6.60;;;5.90;;
5696;SDS011;2873;50.966;7.210;2023-06-14T01:33:10;6.60;;;5.90;;
5696;SDS011;2873;50.966;7.210;2023-06-14T01:35:42;12.65;;;6.40;;
5696;SDS011;2873;50.966;7.210;2023-06-14T01:38:09;9.35;;;6.20;;
5696;SDS011;2873;50.966;7.210;2023-06-14T01:40:35;9.00;;;6.10;;
5696;SDS011;2873;50.966;7.210;2023-06-14T01:43:02;8.57;;;6.32;;
5696;SDS011;2873;50.966;7.210;2023-06-14T01:45:29;6.60;;;5.60;;
5696;SDS011;2873;50.966;7.210;2023-06-14T01:47:56;8.57;;;5.65;;
5696;SDS011;2873;50.966;7.210;2023-06-14T01:50:22;8.82;;;5.80;;
5696;SDS011;2873;50.966;7.210;2023-06-14T01:52:47;6.77;;;5.70;;
5696;SDS011;2873;50.966;7.210;2023-06-14T01:55:13;8.60;;;5.95;;
5696;SDS011;2873;50.966;7.210;2023-06-14T01:57:39;11.65;;;5.55;;
5696;SDS011;2873;50.966;7.210;2023-06-14T02:00:05;9.13;;;5.93;;
5696;SDS011;2873;50.966;7.210;2023-06-14T02:02:37;6.07;;;5.43;;
5696;SDS011;2873;50.966;7.210;2023-06-14T02:05:03;7.85;;;5.63;;
5696;SDS011;2873;50.966;7.210;2023-06-14T02:07:29;9.27;;;5.35;;
5696;SDS011;2873;50.966;7.210;2023-06-14T02:09:54;8.15;;;5.25;;
5696;SDS011;2873;50.966;7.210;2023-06-14T02:12:20;10.20;;;5.50;;
5696;SDS011;2873;50.966;7.210;2023-06-14T02:14:47;6.55;;;5.43;;
5696;SDS011;2873;50.966;7.210;2023-06-14T02:17:13;6.30;;;5.25;;
5696;SDS011;2873;50.966;7.210;2023-06-14T02:19:39;5.50;;;5.00;;
5696;SDS011;2873;50.966;7.210;2023-06-14T02:22:05;7.60;;;5.90;;
5696;SDS011;2873;50.966;7.210;2023-06-14T02:24:31;8.07;;;5.30;;
5696;SDS011;2873;50.966;7.210;2023-06-14T02:26:57;6.30;;;5.40;;
5696;SDS011;2873;50.966;7.210;2023-06-14T02:29:22;9.10;;;5.37;;
5696;SDS011;2873;50.966;7.210;2023-06-14T02:31:48;7.63;;;4.90;;
5696;SDS011;2873;50.966;7.210;2023-06-14T02:34:14;8.10;;;5.05;;
5696;SDS011;2873;50.966;7.210;2023-06-14T02:36:41;6.97;;;5.20;;
5696;SDS011;2873;50.966;7.210;2023-06-14T02:39:10;9.20;;;4.53;;
5696;SDS011;2873;50.966;7.210;2023-06-14T02:41:36;7.03;;;5.47;;
5696;SDS011;2873;50.966;7.210;2023-06-14T02:44:02;7.88;;;4.90;;
5696;SDS011;2873;50.966;7.210;2023-06-14T02:46:28;7.03;;;5.10;;
5696;SDS011;2873;50.966;7.210;2023-06-14T02:48:53;6.87;;;5.20;;
5696;SDS011;2873;50.966;7.210;2023-06-14T02:51:19;5.72;;;5.15;;
5696;SDS011;2873;50.966;7.210;2023-06-14T02:53:44;6.00;;;5.07;;
5696;SDS011;2873;50.966;7.210;2023-06-14T02:56:10;7.30;;;4.70;;
5696;SDS011;2873;50.966;7.210;2023-06-14T02:58:36;7.80;;;5.20;;
5696;SDS011;2873;50.966;7.210;2023-06-14T03:01:02;9.13;;;4.93;;
5696;SDS011;2873;50.966;7.210;2023-06-14T03:03:30;8.07;;;5.05;;
5696;SDS011;2873;50.966;7.210;2023-06-14T03:05:56;8.63;;;4.90;;
5696;SDS011;2873;50.966;7.210;2023-06-14T03:08:22;7.93;;;5.13;;
5696;SDS011;2873;50.966;7.210;2023-06-14T03:10:52;5.28;;;4.78;;
5696;SDS011;2873;50.966;7.210;2023-06-14T03:13:18;11.05;;;4.90;;
5696;SDS011;2873;50.966;7.210;2023-06-14T03:15:47;7.55;;;5.15;;
5696;SDS011;2873;50.966;7.210;2023-06-14T03:18:15;8.32;;;5.38;;
5696;SDS011;2873;50.966;7.210;2023-06-14T03:20:41;5.10;;;4.60;;
5696;SDS011;2873;50.966;7.210;2023-06-14T03:23:07;6.43;;;5.15;;
5696;SDS011;2873;50.966;7.210;2023-06-14T03:25:33;6.43;;;4.88;;
5696;SDS011;2873;50.966;7.210;2023-06-14T03:28:06;6.90;;;5.20;;
5696;SDS011;2873;50.966;7.210;2023-06-14T03:30:32;8.20;;;4.67;;
5696;SDS011;2873;50.966;7.210;2023-06-14T03:32:58;5.88;;;4.95;;
5696;SDS011;2873;50.966;7.210;2023-06-14T03:35:26;7.27;;;5.27;;
5696;SDS011;2873;50.966;7.210;2023-06-14T03:37:51;5.55;;;4.72;;
5696;SDS011;2873;50.966;7.210;2023-06-14T03:40:17;10.07;;;5.43;;
5696;SDS011;2873;50.966;7.210;2023-06-14T03:42:45;10.23;;;5.37;;
5696;SDS011;2873;50.966;7.210;2023-06-14T03:45:10;10.70;;;4.80;;
5696;SDS011;2873;50.966;7.210;2023-06-14T03:47:36;6.00;;;5.10;;
5696;SDS011;2873;50.966;7.210;2023-06-14T03:50:02;12.60;;;5.13;;
5696;SDS011;2873;50.966;7.210;2023-06-14T03:52:28;8.70;;;5.07;;
5696;SDS011;2873;50.966;7.210;2023-06-14T03:54:54;8.27;;;5.70;;
5696;SDS011;2873;50.966;7.210;2023-06-14T03:57:20;5.70;;;4.57;;
5696;SDS011;2873;50.966;7.210;2023-06-14T03:59:46;8.48;;;5.10;;
5696;SDS011;2873;50.966;7.210;2023-06-14T04:02:12;7.53;;;4.77;;
5696;SDS011;2873;50.966;7.210;2023-06-14T04:04:41;6.78;;;4.80;;
5696;SDS011;2873;50.966;7.210;2023-06-14T04:07:09;5.53;;;4.53;;
5696;SDS011;2873;50.966;7.210;2023-06-14T04:09:35;9.25;;;5.40;;
5696;SDS011;2873;50.966;7.210;2023-06-14T04:12:00;9.70;;;4.70;;
5696;SDS011;2873;50.966;7.210;2023-06-14T04:14:26;7.40;;;4.50;;
5696;SDS011;2873;50.966;7.210;2023-06-14T04:16:51;6.00;;;4.90;;
5696;SDS011;2873;50.966;7.210;2023-06-14T04:19:17;7.73;;;5.10;;
5696;SDS011;2873;50.966;7.210;2023-06-14T04:21:43;10.20;;;5.20;;
5696;SDS011;2873;50.966;7.210;2023-06-14T04:24:08;6.38;;;4.97;;
5696;SDS011;2873;50.966;7.210;2023-06-14T04:26:42;6.33;;;4.43;;
5696;SDS011;2873;50.966;7.210;2023-06-14T04:29:10;10.15;;;5.13;;
5696;SDS011;2873;50.966;7.210;2023-06-14T04:31:39;5.63;;;5.10;;
5696;SDS011;2873;50.966;7.210;2023-06-14T04:34:05;10.60;;;4.90;;
5696;SDS011;2873;50.966;7.210;2023-06-14T04:36:34;5.93;;;4.40;;
5696;SDS011;2873;50.966;7.210;2023-06-14T04:39:02;9.25;;;5.60;;
5696;SDS011;2873;50.966;7.210;2023-06-14T04:41:29;6.22;;;4.90;;
5696;SDS011;2873;50.966;7.210;2023-06-14T04:43:55;6.85;;;4.97;;
5696;SDS011;2873;50.966;7.210;2023-06-14T04:46:23;8.93;;;5.10;;
5696;SDS011;2873;50.966;7.210;2023-06-14T04:48:49;8.00;;;4.83;;
5696;SDS011;2873;50.966;7.210;2023-06-14T04:51:15;9.60;;;5.75;;
5696;SDS011;2873;50.966;7.210;2023-06-14T04:53:41;7.93;;;5.50;;
5696;SDS011;2873;50.966;7.210;2023-06-14T04:56:08;9.65;;;4.93;;
5696;SDS011;2873;50.966;7.210;2023-06-14T04:58:35;11.13;;;5.45;;
5696;SDS011;2873;50.966;7.210;2023-06-14T05:01:00;6.40;;;4.90;;
5696;SDS011;2873;50.966;7.210;2023-06-14T05:03:27;6.40;;;4.65;;
5696;SDS011;2873;50.966;7.210;2023-06-14T05:05:52;6.60;;;4.50;;
5696;SDS011;2873;50.966;7.210;2023-06-14T05:08:18;7.63;;;4.60;;
5696;SDS011;2873;50.966;7.210;2023-06-14T05:10:45;6.35;;;4.93;;
5696;SDS011;2873;50.966;7.210;2023-06-14T05:13:10;6.32;;;4.75;;
5696;SDS011;2873;50.966;7.210;2023-06-14T05:15:36;5.63;;;4.50;;
5696;SDS011;2873;50.966;7.210;2023-06-14T05:18:02;12.50;;;4.33;;
5696;SDS011;2873;50.966;7.210;2023-06-14T05:20:27;10.23;;;4.60;;
5696;SDS011;2873;50.966;7.210;2023-06-14T05:22:53;9.57;;;4.30;;
5696;SDS011;2873;50.966;7.210;2023-06-14T05:25:19;5.32;;;4.60;;
5696;SDS011;2873;50.966;7.210;2023-06-14T05:27:46;7.05;;;4.40;;
5696;SDS011;2873;50.966;7.210;2023-06-14T05:30:12;5.80;;;4.50;;
5696;SDS011;2873;50.966;7.210;2023-06-14T05:32:39;7.15;;;5.05;;
5696;SDS011;2873;50.966;7.210;2023-06-14T05:35:05;7.63;;;4.65;;
5696;SDS011;2873;50.966;7.210;2023-06-14T05:37:31;6.72;;;4.65;;
5696;SDS011;2873;50.966;7.210;2023-06-14T05:39:57;11.25;;;5.20;;
5696;SDS011;2873;50.966;7.210;2023-06-14T05:42:23;7.03;;;4.32;;
5696;SDS011;2873;50.966;7.210;2023-06-14T05:44:48;4.70;;;4.30;;
5696;SDS011;2873;50.966;7.210;2023-06-14T05:47:14;13.85;;;4.70;;
5696;SDS011;2873;50.966;7.210;2023-06-14T05:49:39;7.30;;;4.20;;
5696;SDS011;2873;50.966;7.210;2023-06-14T05:52:05;5.33;;;4.50;;
5696;SDS011;2873;50.966;7.210;2023-06-14T05:54:31;5.85;;;3.90;;
5696;SDS011;2873;50.966;7.210;2023-06-14T05:56:57;4.63;;;4.23;;
5696;SDS011;2873;50.966;7.210;2023-06-14T05:59:26;6.50;;;4.00;;
5696;SDS011;2873;50.966;7.210;2023-06-14T06:01:52;6.43;;;4.20;;
5696;SDS011;2873;50.966;7.210;2023-06-14T06:04:18;9.80;;;4.68;;
5696;SDS011;2873;50.966;7.210;2023-06-14T06:06:44;7.32;;;4.20;;
5696;SDS011;2873;50.966;7.210;2023-06-14T06:09:11;9.60;;;4.10;;
5696;SDS011;2873;50.966;7.210;2023-06-14T06:11:37;4.50;;;4.10;;
5696;SDS011;2873;50.966;7.210;2023-06-14T06:14:02;4.88;;;4.13;;
5696;SDS011;2873;50.966;7.210;2023-06-14T06:16:28;8.52;;;4.40;;
5696;SDS011;2873;50.966;7.210;2023-06-14T06:18:53;10.50;;;4.20;;
5696;SDS011;2873;50.966;7.210;2023-06-14T06:21:19;4.83;;;4.33;;
5696;SDS011;2873;50.966;7.210;2023-06-14T06:23:44;5.47;;;3.50;;
5696;SDS011;2873;50.966;7.210;2023-06-14T06:26:10;8.60;;;4.05;;
5696;SDS011;2873;50.966;7.210;2023-06-14T06:28:35;5.22;;;3.83;;
5696;SDS011;2873;50.966;7.210;2023-06-14T06:31:01;6.23;;;4.33;;
5696;SDS011;2873;50.966;7.210;2023-06-14T06:33:28;3.80;;;3.50;;
5696;SDS011;2873;50.966;7.210;2023-06-14T06:35:53;4.27;;;3.87;;
5696;SDS011;2873;50.966;7.210;2023-06-14T06:38:19;4.30;;;3.92;;
5696;SDS011;2873;50.966;7.210;2023-06-14T06:40:45;4.18;;;3.50;;
5696;SDS011;2873;50.966;7.210;2023-06-14T06:43:10;7.00;;;3.80;;
5696;SDS011;2873;50.966;7.210;2023-06-14T06:45:38;6.38;;;3.50;;
5696;SDS011;2873;50.966;7.210;2023-06-14T06:48:05;3.60;;;3.30;;
5696;SDS011;2873;50.966;7.210;2023-06-14T06:50:31;4.10;;;3.70;;
5696;SDS011;2873;50.966;7.210;2023-06-14T06:52:57;4.40;;;3.17;;
5696;SDS011;2873;50.966;7.210;2023-06-14T06:55:23;3.90;;;3.50;;
5696;SDS011;2873;50.966;7.210;2023-06-14T06:57:49;3.92;;;3.40;;
5696;SDS011;2873;50.966;7.210;2023-06-14T07:00:15;4.60;;;3.30;;
5696;SDS011;2873;50.966;7.210;2023-06-14T07:02:41;4.25;;;3.17;;
5696;SDS011;2873;50.966;7.210;2023-06-14T07:05:07;3.30;;;3.00;;
5696;SDS011;2873;50.966;7.210;2023-06-14T07:07:33;4.75;;;3.30;;
5696;SDS011;2873;50.966;7.210;2023-06-14T07:09:59;7.33;;;3.47;;
5696;SDS011;2873;50.966;7.210;2023-06-14T07:12:25;3.40;;;3.10;;
5696;SDS011;2873;50.966;7.210;2023-06-14T07:14:51;8.07;;;3.10;;
5696;SDS011;2873;50.966;7.210;2023-06-14T07:17:16;6.65;;;2.97;;
5696;SDS011;2873;50.966;7.210;2023-06-14T07:19:42;4.40;;;3.00;;
5696;SDS011;2873;50.966;7.210;2023-06-14T07:22:08;2.80;;;2.50;;
5696;SDS011;2873;50.966;7.210;2023-06-14T07:24:33;5.53;;;2.60;;
5696;SDS011;2873;50.966;7.210;2023-06-14T07:27:01;3.17;;;2.35;;
5696;SDS011;2873;50.966;7.210;2023-06-14T07:29:28;2.00;;;1.90;;
5696;SDS011;2873;50.966;7.210;2023-06-14T07:31:53;3.80;;;2.30;;
5696;SDS011;2873;50.966;7.210;2023-06-14T07:34:19;2.17;;;1.92;;
5696;SDS011;2873;50.966;7.210;2023-06-14T07:36:45;1.90;;;1.70;;
5696;SDS011;2873;50.966;7.210;2023-06-14T07:39:11;1.90;;;1.80;;
5696;SDS011;2873;50.966;7.210;2023-06-14T07:41:37;3.20;;;2.00;;
5696;SDS011;2873;50.966;7.210;2023-06-14T07:44:02;3.40;;;1.80;;
5696;SDS011;2873;50.966;7.210;2023-06-14T07:46:28;2.10;;;1.67;;
5696;SDS011;2873;50.966;7.210;2023-06-14T07:48:54;2.20;;;2.10;;
5696;SDS011;2873;50.966;7.210;2023-06-14T07:51:19;3.27;;;2.13;;
5696;SDS011;2873;50.966;7.210;2023-06-14T07:53:47;2.03;;;1.80;;
5696;SDS011;2873;50.966;7.210;2023-06-14T07:56:13;1.90;;;1.70;;
5696;SDS011;2873;50.966;7.210;2023-06-14T07:58:39;5.10;;;1.70;;
5696;SDS011;2873;50.966;7.210;2023-06-14T08:01:04;2.40;;;2.20;;
5696;SDS011;2873;50.966;7.210;2023-06-14T08:03:32;1.80;;;1.70;;
5696;SDS011;2873;50.966;7.210;2023-06-14T08:05:58;1.98;;;1.88;;
5696;SDS011;2873;50.966;7.210;2023-06-14T08:08:25;2.05;;;1.95;;
5696;SDS011;2873;50.966;7.210;2023-06-14T08:10:51;1.60;;;1.60;;
5696;SDS011;2873;50.966;7.210;2023-06-14T08:13:17;3.70;;;2.00;;
5696;SDS011;2873;50.966;7.210;2023-06-14T08:15:42;2.30;;;1.70;;
5696;SDS011;2873;50.966;7.210;2023-06-14T08:18:09;1.90;;;1.80;;
5696;SDS011;2873;50.966;7.210;2023-06-14T08:20:34;1.98;;;1.88;;
5696;SDS011;2873;50.966;7.210;2023-06-14T08:23:01;2.30;;;2.07;;
5696;SDS011;2873;50.966;7.210;2023-06-14T08:25:28;1.90;;;1.60;;
5696;SDS011;2873;50.966;7.210;2023-06-14T08:27:55;3.00;;;1.83;;
5696;SDS011;2873;50.966;7.210;2023-06-14T08:30:21;1.73;;;1.73;;
5696;SDS011;2873;50.966;7.210;2023-06-14T08:32:47;2.05;;;1.50;;
5696;SDS011;2873;50.966;7.210;2023-06-14T08:35:12;1.83;;;1.73;;
5696;SDS011;2873;50.966;7.210;2023-06-14T08:37:39;1.88;;;1.75;;
5696;SDS011;2873;50.966;7.210;2023-06-14T08:40:13;3.75;;;1.60;;
5696;SDS011;2873;50.966;7.210;2023-06-14T08:42:50;1.85;;;1.70;;
5696;SDS011;2873;50.966;7.210;2023-06-14T08:45:18;1.77;;;1.67;;
5696;SDS011;2873;50.966;7.210;2023-06-14T08:47:52;2.00;;;1.60;;
5696;SDS011;2873;50.966;7.210;2023-06-14T08:50:22;1.92;;;1.83;;
5696;SDS011;2873;50.966;7.210;2023-06-14T08:52:55;2.97;;;2.03;;
5696;SDS011;2873;50.966;7.210;2023-06-14T08:55:25;4.88;;;1.90;;
5696;SDS011;2873;50.966;7.210;2023-06-14T08:57:56;3.30;;;1.77;;
5696;SDS011;2873;50.966;7.210;2023-06-14T09:00:23;2.10;;;1.90;;
5696;SDS011;2873;50.966;7.210;2023-06-14T09:02:53;1.90;;;1.80;;
5696;SDS011;2873;50.966;7.210;2023-06-14T09:05:26;6.40;;;2.00;;
5696;SDS011;2873;50.966;7.210;2023-06-14T09:07:52;2.30;;;2.10;;
5696;SDS011;2873;50.966;7.210;2023-06-14T09:10:21;2.00;;;1.90;;
5696;SDS011;2873;50.966;7.210;2023-06-14T09:12:47;2.40;;;2.00;;
5696;SDS011;2873;50.966;7.210;2023-06-14T09:15:13;2.75;;;2.40;;
5696;SDS011;2873;50.966;7.210;2023-06-14T09:17:39;2.15;;;2.05;;
5696;SDS011;2873;50.966;7.210;2023-06-14T09:20:05;1.80;;;1.70;;
5696;SDS011;2873;50.966;7.210;2023-06-14T09:22:36;3.00;;;1.90;;
5696;SDS011;2873;50.966;7.210;2023-06-14T09:25:02;1.83;;;1.60;;
5696;SDS011;2873;50.966;7.210;2023-06-14T09:27:29;5.00;;;1.73;;
5696;SDS011;2873;50.966;7.210;2023-06-14T09:29:55;4.50;;;1.80;;
5696;SDS011;2873;50.966;7.210;2023-06-14T09:32:23;2.20;;;2.00;;
5696;SDS011;2873;50.966;7.210;2023-06-14T09:34:50;4.75;;;1.90;;
5696;SDS011;2873;50.966;7.210;2023-06-14T09:37:29;2.00;;;1.90;;
5696;SDS011;2873;50.966;7.210;2023-06-14T09:39:55;3.55;;;1.95;;
5696;SDS011;2873;50.966;7.210;2023-06-14T09:42:21;1.88;;;1.77;;
5696;SDS011;2873;50.966;7.210;2023-06-14T09:44:51;1.80;;;1.70;;
5696;SDS011;2873;50.966;7.210;2023-06-14T09:47:18;1.70;;;1.60;;
5696;SDS011;2873;50.966;7.210;2023-06-14T09:49:44;2.63;;;1.50;;
5696;SDS011;2873;50.966;7.210;2023-06-14T09:52:10;4.20;;;1.70;;
5696;SDS011;2873;50.966;7.210;2023-06-14T09:54:40;1.80;;;1.70;;
5696;SDS011;2873;50.966;7.210;2023-06-14T09:57:11;4.20;;;1.80;;
5696;SDS011;2873;50.966;7.210;2023-06-14T09:59:41;2.80;;;2.30;;
5696;SDS011;2873;50.966;7.210;2023-06-14T10:04:50;1.75;;;1.65;;
5696;SDS011;2873;50.966;7.210;2023-06-14T10:07:23;3.23;;;1.77;;
5696;SDS011;2873;50.966;7.210;2023-06-14T10:09:52;2.67;;;1.90;;
5696;SDS011;2873;50.966;7.210;2023-06-14T10:12:19;2.00;;;1.88;;
5696;SDS011;2873;50.966;7.210;2023-06-14T10:14:49;3.53;;;1.92;;
5696;SDS011;2873;50.966;7.210;2023-06-14T10:17:31;1.90;;;1.80;;
5696;SDS011;2873;50.966;7.210;2023-06-14T10:22:46;3.10;;;1.90;;
5696;SDS011;2873;50.966;7.210;2023-06-14T10:25:49;3.92;;;1.90;;
5696;SDS011;2873;50.966;7.210;2023-06-14T10:28:20;2.70;;;1.80;;
5696;SDS011;2873;50.966;7.210;2023-06-14T10:31:06;2.00;;;1.90;;
5696;SDS011;2873;50.966;7.210;2023-06-14T10:36:23;6.07;;;2.00;;
5696;SDS011;2873;50.966;7.210;2023-06-14T10:39:17;2.10;;;1.63;;
5696;SDS011;2873;50.966;7.210;2023-06-14T10:41:50;2.40;;;2.20;;
5696;SDS011;2873;50.966;7.210;2023-06-14T10:46:48;2.60;;;2.10;;
5696;SDS011;2873;50.966;7.210;2023-06-14T10:49:17;5.13;;;2.28;;
5696;SDS011;2873;50.966;7.210;2023-06-14T10:51:49;5.05;;;2.58;;
5696;SDS011;2873;50.966;7.210;2023-06-14T10:54:16;4.10;;;2.30;;
5696;SDS011;2873;50.966;7.210;2023-06-14T10:56:52;4.20;;;1.92;;
5696;SDS011;2873;50.966;7.210;2023-06-14T10:59:19;2.90;;;1.80;;
5696;SDS011;2873;50.966;7.210;2023-06-14T11:01:55;2.60;;;1.70;;
5696;SDS011;2873;50.966;7.210;2023-06-14T11:04:22;2.00;;;1.80;;
5696;SDS011;2873;50.966;7.210;2023-06-14T11:07:18;1.50;;;1.40;;
5696;SDS011;2873;50.966;7.210;2023-06-14T11:12:25;1.80;;;1.70;;
5696;SDS011;2873;50.966;7.210;2023-06-14T11:14:52;1.75;;;1.65;;
5696;SDS011;2873;50.966;7.210;2023-06-14T11:17:18;3.75;;;1.67;;
5696;SDS011;2873;50.966;7.210;2023-06-14T11:19:45;3.10;;;1.50;;
5696;SDS011;2873;50.966;7.210;2023-06-14T11:22:10;2.50;;;1.77;;
5696;SDS011;2873;50.966;7.210;2023-06-14T11:24:37;2.30;;;1.80;;
5696;SDS011;2873;50.966;7.210;2023-06-14T11:27:02;1.80;;;1.70;;
5696;SDS011;2873;50.966;7.210;2023-06-14T11:29:28;1.50;;;1.50;;
5696;SDS011;2873;50.966;7.210;2023-06-14T11:31:55;1.50;;;1.40;;
5696;SDS011;2873;50.966;7.210;2023-06-14T11:34:21;3.00;;;1.63;;
5696;SDS011;2873;50.966;7.210;2023-06-14T11:36:46;2.10;;;1.90;;
5696;SDS011;2873;50.966;7.210;2023-06-14T11:39:12;1.60;;;1.60;;
5696;SDS011;2873;50.966;7.210;2023-06-14T11:41:40;5.60;;;1.73;;
5696;SDS011;2873;50.966;7.210;2023-06-14T11:44:09;1.60;;;1.60;;
5696;SDS011;2873;50.966;7.210;2023-06-14T11:46:35;1.48;;;1.38;;
5696;SDS011;2873;50.966;7.210;2023-06-14T11:49:01;3.37;;;1.83;;
5696;SDS011;2873;50.966;7.210;2023-06-14T11:51:28;1.70;;;1.60;;
5696;SDS011;2873;50.966;7.210;2023-06-14T11:53:55;1.60;;;1.50;;
5696;SDS011;2873;50.966;7.210;2023-06-14T11:56:21;1.50;;;1.40;;
5696;SDS011;2873;50.966;7.210;2023-06-14T11:58:46;1.60;;;1.50;;
5696;SDS011;2873;50.966;7.210;2023-06-14T12:01:18;2.13;;;1.93;;
5696;SDS011;2873;50.966;7.210;2023-06-14T12:03:47;1.40;;;1.30;;
5696;SDS011;2873;50.966;7.210;2023-06-14T12:06:14;1.70;;;1.60;;
5696;SDS011;2873;50.966;7.210;2023-06-14T12:08:39;2.60;;;1.47;;
5696;SDS011;2873;50.966;7.210;2023-06-14T12:11:13;2.20;;;1.55;;
5696;SDS011;2873;50.966;7.210;2023-06-14T12:13:40;3.33;;;1.50;;
5696;SDS011;2873;50.966;7.210;2023-06-14T12:16:07;1.58;;;1.48;;
5696;SDS011;2873;50.966;7.210;2023-06-14T12:18:34;4.50;;;1.40;;
5696;SDS011;2873;50.966;7.210;2023-06-14T12:21:02;1.60;;;1.40;;
5696;SDS011;2873;50.966;7.210;2023-06-14T12:23:39;1.42;;;1.33;;
5696;SDS011;2873;50.966;7.210;2023-06-14T12:26:08;1.58;;;1.58;;
5696;SDS011;2873;50.966;7.210;2023-06-14T12:28:33;1.80;;;1.70;;
5696;SDS011;2873;50.966;7.210;2023-06-14T12:30:59;1.90;;;1.80;;
5696;SDS011;2873;50.966;7.210;2023-06-14T12:33:25;2.13;;;1.93;;
5696;SDS011;2873;50.966;7.210;2023-06-14T12:35:51;10.63;;;2.10;;
5696;SDS011;2873;50.966;7.210;2023-06-14T12:38:21;3.10;;;2.20;;
5696;SDS011;2873;50.966;7.210;2023-06-14T12:40:47;1.80;;;1.70;;
5696;SDS011;2873;50.966;7.210;2023-06-14T12:43:13;2.07;;;1.83;;
5696;SDS011;2873;50.966;7.210;2023-06-14T12:45:38;2.60;;;2.40;;
5696;SDS011;2873;50.966;7.210;2023-06-14T12:48:04;2.33;;;2.13;;
5696;SDS011;2873;50.966;7.210;2023-06-14T12:50:29;2.13;;;2.03;;
5696;SDS011;2873;50.966;7.210;2023-06-14T12:52:55;4.90;;;2.08;;
5696;SDS011;2873;50.966;7.210;2023-06-14T12:55:21;3.07;;;2.13;;
5696;SDS011;2873;50.966;7.210;2023-06-14T12:57:46;2.40;;;2.10;;
5696;SDS011;2873;50.966;7.210;2023-06-14T13:00:15;2.22;;;2.10;;
5696;SDS011;2873;50.966;7.210;2023-06-14T13:02:42;2.50;;;2.10;;
5696;SDS011;2873;50.966;7.210;2023-06-14T13:05:08;2.17;;;1.95;;
5696;SDS011;2873;50.966;7.210;2023-06-14T13:07:34;4.03;;;2.30;;
5696;SDS011;2873;50.966;7.210;2023-06-14T13:10:00;2.60;;;2.40;;
5696;SDS011;2873;50.966;7.210;2023-06-14T13:12:26;2.57;;;2.30;;
5696;SDS011;2873;50.966;7.210;2023-06-14T13:14:51;2.10;;;2.00;;
5696;SDS011;2873;50.966;7.210;2023-06-14T13:17:17;2.30;;;2.20;;
5696;SDS011;2873;50.966;7.210;2023-06-14T13:19:42;2.47;;;2.27;;
5696;SDS011;2873;50.966;7.210;2023-06-14T13:22:08;2.00;;;1.90;;
5696;SDS011;2873;50.966;7.210;2023-06-14T13:24:33;2.40;;;2.30;;
5696;SDS011;2873;50.966;7.210;2023-06-14T13:27:00;2.20;;;2.10;;
5696;SDS011;2873;50.966;7.210;2023-06-14T13:29:28;2.22;;;2.08;;
5696;SDS011;2873;50.966;7.210;2023-06-14T13:31:55;2.20;;;2.10;;
5696;SDS011;2873;50.966;7.210;2023-06-14T13:34:21;2.87;;;2.13;;
5696;SDS011;2873;50.966;7.210;2023-06-14T13:36:47;1.90;;;1.80;;
5696;SDS011;2873;50.966;7.210;2023-06-14T13:39:14;2.38;;;2.22;;
5696;SDS011;2873;50.966;7.210;2023-06-14T13:41:40;2.23;;;2.13;;
5696;SDS011;2873;50.966;7.210;2023-06-14T13:44:05;2.20;;;2.10;;
5696;SDS011;2873;50.966;7.210;2023-06-14T13:46:31;8.10;;;2.50;;
5696;SDS011;2873;50.966;7.210;2023-06-14T13:48:57;4.18;;;2.45;;
5696;SDS011;2873;50.966;7.210;2023-06-14T13:51:23;2.20;;;2.10;;
5696;SDS011;2873;50.966;7.210;2023-06-14T13:53:49;2.30;;;2.20;;
5696;SDS011;2873;50.966;7.210;2023-06-14T13:56:15;3.92;;;2.20;;
5696;SDS011;2873;50.966;7.210;2023-06-14T13:58:42;1.90;;;1.80;;
5696;SDS011;2873;50.966;7.210;2023-06-14T14:01:11;2.37;;;2.17;;
5696;SDS011;2873;50.966;7.210;2023-06-14T14:03:37;2.10;;;2.00;;
5696;SDS011;2873;50.966;7.210;2023-06-14T14:06:03;2.20;;;2.10;;
5696;SDS011;2873;50.966;7.210;2023-06-14T14:08:30;2.20;;;2.05;;
5696;SDS011;2873;50.966;7.210;2023-06-14T14:10:56;3.40;;;2.25;;
5696;SDS011;2873;50.966;7.210;2023-06-14T14:13:22;2.17;;;1.98;;
5696;SDS011;2873;50.966;7.210;2023-06-14T14:15:48;3.23;;;2.40;;
5696;SDS011;2873;50.966;7.210;2023-06-14T14:18:17;2.33;;;2.22;;
5696;SDS011;2873;50.966;7.210;2023-06-14T14:20:45;2.50;;;2.30;;
5696;SDS011;2873;50.966;7.210;2023-06-14T14:23:11;2.20;;;2.10;;
5696;SDS011;2873;50.966;7.210;2023-06-14T14:25:36;2.20;;;2.10;;
5696;SDS011;2873;50.966;7.210;2023-06-14T14:28:02;2.30;;;2.20;;
5696;SDS011;2873;50.966;7.210;2023-06-14T14:30:28;2.40;;;2.30;;
5696;SDS011;2873;50.966;7.210;2023-06-14T14:32:54;4.50;;;2.50;;
5696;SDS011;2873;50.966;7.210;2023-06-14T14:35:19;2.40;;;2.20;;
5696;SDS011;2873;50.966;7.210;2023-06-14T14:37:45;3.60;;;2.20;;
5696;SDS011;2873;50.966;7.210;2023-06-14T14:40:11;2.20;;;2.10;;
5696;SDS011;2873;50.966;7.210;2023-06-14T14:42:37;2.10;;;2.00;;
5696;SDS011;2873;50.966;7.210;2023-06-14T14:45:02;4.10;;;2.20;;
5696;SDS011;2873;50.966;7.210;2023-06-14T14:47:29;2.10;;;2.00;;
5696;SDS011;2873;50.966;7.210;2023-06-14T14:49:55;2.50;;;2.40;;
5696;SDS011;2873;50.966;7.210;2023-06-14T14:52:20;2.00;;;1.90;;
5696;SDS011;2873;50.966;7.210;2023-06-14T14:54:46;2.70;;;2.60;;
5696;SDS011;2873;50.966;7.210;2023-06-14T14:57:11;2.10;;;2.00;;
5696;SDS011;2873;50.966;7.210;2023-06-14T14:59:37;2.10;;;2.00;;
5696;SDS011;2873;50.966;7.210;2023-06-14T15:02:03;4.28;;;2.30;;
5696;SDS011;2873;50.966;7.210;2023-06-14T15:04:28;2.40;;;2.20;;
5696;SDS011;2873;50.966;7.210;2023-06-14T15:06:54;2.30;;;2.20;;
5696;SDS011;2873;50.966;7.210;2023-06-14T15:09:20;5.30;;;2.10;;
5696;SDS011;2873;50.966;7.210;2023-06-14T15:11:45;2.40;;;2.17;;
5696;SDS011;2873;50.966;7.210;2023-06-14T15:14:11;3.05;;;2.20;;
5696;SDS011;2873;50.966;7.210;2023-06-14T15:16:37;2.58;;;2.45;;
5696;SDS011;2873;50.966;7.210;2023-06-14T15:19:02;6.30;;;2.80;;
5696;SDS011;2873;50.966;7.210;2023-06-14T15:21:28;2.60;;;2.40;;
5696;SDS011;2873;50.966;7.210;2023-06-14T15:23:53;5.00;;;2.40;;
5696;SDS011;2873;50.966;7.210;2023-06-14T15:26:19;5.30;;;2.37;;
5696;SDS011;2873;50.966;7.210;2023-06-14T15:28:45;2.20;;;2.10;;
5696;SDS011;2873;50.966;7.210;2023-06-14T15:31:11;2.40;;;2.30;;
5696;SDS011;2873;50.966;7.210;2023-06-14T15:33:36;3.60;;;2.47;;